createdAt,value
2023-02-28T00:00:37.029Z,53.8
2023-02-28T00:03:37.826Z,55.7
2023-02-28T00:06:25.440Z,58.1
2023-02-28T00:09:13.479Z,59.7
2023-02-28T00:12:00.921Z,61.4
2023-02-28T00:14:55.663Z,63.6
2023-02-28T00:17:43.468Z,57
2023-02-28T00:20:31.292Z,54.7
2023-02-28T00:23:18.819Z,56.4
2023-02-28T00:26:06.175Z,59.4
2023-02-28T00:28:53.687Z,61.1
2023-02-28T00:31:40.990Z,62.8
2023-02-28T00:34:28.285Z,63.5
2023-02-28T00:37:15.622Z,56.6
2023-02-28T00:40:03.263Z,53.1
2023-02-28T00:42:54.526Z,56.1
2023-02-28T00:45:42.038Z,58.2
2023-02-28T00:48:29.785Z,60.2
2023-02-28T00:51:17.305Z,61.5
2023-02-28T00:54:04.607Z,65.1
2023-02-28T00:56:51.924Z,60
2023-02-28T00:59:39.239Z,57
2023-02-28T01:02:26.756Z,58.1
2023-02-28T01:05:14.266Z,59.8
2023-02-28T01:08:01.783Z,61.3
2023-02-28T01:10:49.652Z,62.1
2023-02-28T01:13:37.069Z,65.5
2023-02-28T01:16:24.668Z,60.3
2023-02-28T01:19:13.131Z,55.8
2023-02-28T01:22:00.408Z,56.2
2023-02-28T01:24:49.092Z,57.8
2023-02-28T01:27:36.378Z,59.5
2023-02-28T01:30:25.018Z,60.9
2023-02-28T01:33:12.302Z,63.6
2023-02-28T01:35:59.566Z,62.8
2023-02-28T01:38:49.849Z,55.7
2023-02-28T01:41:37.592Z,55.4
2023-02-28T01:44:25.427Z,57.7
2023-02-28T01:47:46.945Z,60.1
2023-02-28T01:50:36.676Z,61.9
2023-02-28T01:53:28.514Z,64
2023-02-28T01:56:20.632Z,58.9
2023-02-28T01:59:13.204Z,54.4
2023-02-28T02:02:07.538Z,56.1
2023-02-28T02:04:55.860Z,58.4
2023-02-28T02:07:48.497Z,60.5
2023-02-28T02:10:40.318Z,62.5
2023-02-28T02:13:30.643Z,63.6
2023-02-28T02:16:29.147Z,56.6
2023-02-28T02:19:31.703Z,56.1
2023-02-28T02:22:50.755Z,58.1
2023-02-28T02:26:18.370Z,60.5
2023-02-28T02:29:27.889Z,61.6
2023-02-28T02:32:53.770Z,65.1
2023-02-28T02:35:57.301Z,58.2
2023-02-28T02:38:53.091Z,54.8
2023-02-28T02:41:48.133Z,57.5
2023-02-28T02:44:38.298Z,58.9
2023-02-28T02:47:30.619Z,60.9
2023-02-28T02:50:19.491Z,62.5
2023-02-28T02:53:12.352Z,63.4
2023-02-28T02:56:03.212Z,57.8
2023-02-28T02:58:53.415Z,55.7
2023-02-28T03:01:47.369Z,57.4
2023-02-28T03:04:39.271Z,60.7
2023-02-28T03:07:31.824Z,61.8
2023-02-28T03:10:19.329Z,63.8
2023-02-28T03:13:18.517Z,64.6
2023-02-28T03:16:26.636Z,56.6
2023-02-28T03:19:21.707Z,55.4
2023-02-28T03:22:26.205Z,59.3
2023-02-28T03:25:35.003Z,61.2
2023-02-28T03:28:28.574Z,62.6
2023-02-28T03:31:22.819Z,65.3
2023-02-28T03:34:16.110Z,56.4
2023-02-28T03:37:10.258Z,55.5
2023-02-28T03:40:04.293Z,56.8
2023-02-28T03:42:58.687Z,58.9
2023-02-28T03:45:49.519Z,60.7
2023-02-28T03:48:39.717Z,64.6
2023-02-28T03:51:31.822Z,59.5
2023-02-28T03:54:20.059Z,56.4
2023-02-28T03:57:13.085Z,57.7
2023-02-28T04:00:10.757Z,59.8
2023-02-28T04:03:03.584Z,62
2023-02-28T04:05:51.775Z,64.4
2023-02-28T04:08:43.025Z,60.1
2023-02-28T04:11:36.972Z,55.9
2023-02-28T04:14:26.618Z,57.3
2023-02-28T04:17:13.950Z,59.2
2023-02-28T04:20:01.601Z,61.9
2023-02-28T04:22:54.975Z,65.1
2023-02-28T04:25:42.413Z,61.4
2023-02-28T04:28:29.788Z,56.3
2023-02-28T04:31:17.265Z,57.9
2023-02-28T04:34:04.526Z,59.3
2023-02-28T04:37:02.696Z,61.7
2023-02-28T04:39:59.441Z,63.7
2023-02-28T04:42:46.817Z,58.3
2023-02-28T04:45:34.119Z,55.9
2023-02-28T04:48:22.430Z,58.3
2023-02-28T04:51:10.951Z,61.3
2023-02-28T04:54:01.285Z,62
2023-02-28T04:56:48.636Z,64.2
2023-02-28T04:59:35.920Z,58.5
2023-02-28T05:02:23.300Z,55.2
2023-02-28T05:05:10.996Z,56.7
2023-02-28T05:08:03.620Z,58.9
2023-02-28T05:10:51.133Z,61.1
2023-02-28T05:13:38.630Z,64.1
2023-02-28T05:16:26.063Z,61.6
2023-02-28T05:19:13.680Z,56.3
2023-02-28T05:22:01.565Z,57.5
2023-02-28T05:24:48.989Z,58.7
2023-02-28T05:27:36.476Z,60.4
2023-02-28T05:30:24.069Z,65.1
2023-02-28T05:33:17.257Z,61.6
2023-02-28T05:36:04.625Z,56.3
2023-02-28T05:38:53.007Z,57.9
2023-02-28T05:41:40.454Z,60.6
2023-02-28T05:44:28.752Z,63.7
2023-02-28T05:47:16.463Z,64.4
2023-02-28T05:50:04.282Z,57.9
2023-02-28T05:52:55.346Z,55.6
2023-02-28T05:55:42.913Z,58.7
2023-02-28T05:58:30.227Z,61.1
2023-02-28T06:01:17.728Z,64.1
2023-02-28T06:04:19.209Z,62.4
2023-02-28T06:07:10.067Z,56
2023-02-28T06:09:58.930Z,56.8
2023-02-28T06:12:46.353Z,59.2
2023-02-28T06:15:33.738Z,62.6
2023-02-28T06:18:21.500Z,63.5
2023-02-28T06:21:09.062Z,58.6
2023-02-28T06:23:59.286Z,55.3
2023-02-28T06:26:47.219Z,58.2
2023-02-28T06:29:34.784Z,60.3
2023-02-28T06:32:25.444Z,61.7
2023-02-28T06:35:13.228Z,65.4
2023-02-28T06:38:00.626Z,59.6
2023-02-28T06:40:48.704Z,55.8
2023-02-28T06:43:39.968Z,58.1
2023-02-28T06:46:28.443Z,61.2
2023-02-28T06:49:15.714Z,63.6
2023-02-28T06:52:03.474Z,58.3
2023-02-28T06:54:51.321Z,55.7
2023-02-28T06:57:45.418Z,58.2
2023-02-28T07:00:32.777Z,61.4
2023-02-28T07:03:20.011Z,65
2023-02-28T07:06:07.413Z,61.4
2023-02-28T07:08:55.621Z,56.2
2023-02-28T07:11:43.220Z,56.2
2023-02-28T07:14:30.628Z,58.8
2023-02-28T07:17:18.008Z,61.8
2023-02-28T07:20:05.464Z,64.1
2023-02-28T07:22:54.591Z,59.9
2023-02-28T07:25:42.259Z,56.2
2023-02-28T07:28:31.140Z,58.1
2023-02-28T07:31:18.594Z,61.2
2023-02-28T07:34:06.135Z,63
2023-02-28T07:36:53.506Z,64.2
2023-02-28T07:39:41.367Z,58.7
2023-02-28T07:42:28.651Z,55.5
2023-02-28T07:45:16.028Z,57.5
2023-02-28T07:48:05.005Z,60.2
2023-02-28T07:50:52.322Z,62
2023-02-28T07:53:41.541Z,64.3
2023-02-28T07:56:29.387Z,60.6
2023-02-28T07:59:17.443Z,55.7
2023-02-28T08:02:04.889Z,56.8
2023-02-28T08:04:52.356Z,58.6
2023-02-28T08:07:39.781Z,60.2
2023-02-28T08:10:27.191Z,61.9
2023-02-28T08:13:14.487Z,63.8
2023-02-28T08:16:01.779Z,62.3
2023-02-28T08:18:49.367Z,56.1
2023-02-28T08:21:37.893Z,54.9
2023-02-28T08:24:25.476Z,57
2023-02-28T08:27:13.321Z,58.6
2023-02-28T08:30:00.684Z,60.4
2023-02-28T08:32:49.948Z,61.6
2023-02-28T08:35:37.498Z,63.2
2023-02-28T08:38:25.043Z,61.4
2023-02-28T08:41:12.763Z,55
2023-02-28T08:44:00.158Z,54
2023-02-28T08:46:47.696Z,54.5
2023-02-28T08:49:35.095Z,55.8
2023-02-28T08:52:23.211Z,57.1
2023-02-28T08:55:10.990Z,57.8
2023-02-28T08:57:59.087Z,58.7
2023-02-28T09:00:47.182Z,59.5
2023-02-28T09:03:34.672Z,60.3
2023-02-28T09:06:22.170Z,62.6
2023-02-28T09:09:12.162Z,56.9
2023-02-28T09:11:59.634Z,53.9
2023-02-28T09:14:47.704Z,56.8
2023-02-28T09:17:36.109Z,57.1
2023-02-28T09:20:23.638Z,57.4
2023-02-28T09:23:11.428Z,58.8
2023-02-28T09:25:59.994Z,59.3
2023-02-28T09:28:47.897Z,61
2023-02-28T09:31:35.968Z,61.6
2023-02-28T09:34:23.442Z,58.7
2023-02-28T09:37:11.106Z,61.6
2023-02-28T09:39:59.367Z,59.1
2023-02-28T09:42:46.706Z,54.4
2023-02-28T09:45:36.948Z,55.4
2023-02-28T09:48:27.479Z,57.5
2023-02-28T09:51:21.640Z,54.2
2023-02-28T09:54:20.894Z,56.7
2023-02-28T09:57:10.248Z,54.1
2023-02-28T10:00:05.644Z,55.8
2023-02-28T10:03:03.806Z,55.7
2023-02-28T10:06:08.862Z,57
2023-02-28T10:09:02.023Z,57.2
2023-02-28T10:11:56.100Z,54.5
2023-02-28T10:14:50.684Z,54.6
2023-02-28T10:17:54.878Z,53.3
2023-02-28T10:20:46.876Z,53.6
2023-02-28T10:23:36.314Z,56.9
2023-02-28T10:26:23.970Z,55.1
2023-02-28T10:29:14.907Z,53.6
2023-02-28T10:32:02.393Z,56.3
2023-02-28T10:34:50.397Z,56.7
2023-02-28T10:37:41.721Z,52.2
2023-02-28T10:40:31.622Z,51.1
2023-02-28T10:43:21.295Z,53.2
2023-02-28T10:46:10.699Z,52.5
2023-02-28T10:49:11.243Z,53
2023-02-28T10:52:03.702Z,53.8
2023-02-28T10:54:55.783Z,49.6
2023-02-28T10:58:01.872Z,50.7
2023-02-28T11:01:00.578Z,50.7
2023-02-28T11:03:48.146Z,50.1
2023-02-28T11:06:39.785Z,48.1
2023-02-28T11:09:27.106Z,46.8
2023-02-28T11:12:19.181Z,48.7
2023-02-28T11:15:09.840Z,47.6
2023-02-28T11:18:10.180Z,46.4
2023-02-28T11:21:09.810Z,47.2
2023-02-28T11:24:06.018Z,48.3
2023-02-28T11:27:08.816Z,48.2
2023-02-28T11:30:12.216Z,50.8
2023-02-28T11:33:19.746Z,51.1
2023-02-28T11:36:13.353Z,48.3
2023-02-28T11:39:05.017Z,44.6
2023-02-28T11:41:58.489Z,46.7
2023-02-28T11:44:57.885Z,46.5
2023-02-28T11:47:58.336Z,43.6
2023-02-28T11:50:54.986Z,47.5
2023-02-28T11:53:55.038Z,44.5
2023-02-28T11:56:57.784Z,43.8
2023-02-28T12:00:08.009Z,42.8
2023-02-28T12:03:13.987Z,43
2023-02-28T12:06:14.280Z,42
2023-02-28T12:09:09.658Z,42.7
2023-02-28T12:12:15.356Z,41.9
2023-02-28T12:15:16.080Z,43.1
2023-02-28T12:18:14.567Z,43.7
2023-02-28T12:21:19.332Z,38.9
2023-02-28T12:24:17.797Z,40.7
2023-02-28T12:27:25.963Z,42.8
2023-02-28T12:30:19.042Z,40.4
2023-02-28T12:33:11.929Z,42
2023-02-28T12:36:04.525Z,39.2
2023-02-28T12:38:57.865Z,38.7
2023-02-28T12:41:50.514Z,41.3
2023-02-28T12:44:42.287Z,41.2
2023-02-28T12:47:35.059Z,35.2
2023-02-28T12:50:26.622Z,39.7
2023-02-28T12:53:17.302Z,42
2023-02-28T12:56:14.396Z,37.1
2023-02-28T12:59:08.443Z,35.1
2023-02-28T13:02:08.471Z,36.7
2023-02-28T13:05:16.619Z,36.6
2023-02-28T13:08:46.313Z,36.7
2023-02-28T13:11:48.533Z,36.1
2023-02-28T13:14:37.858Z,34.9
2023-02-28T13:17:25.641Z,36.4
2023-02-28T13:20:13.107Z,37.6
2023-02-28T13:23:04.805Z,35.1
2023-02-28T13:26:25.899Z,33.2
2023-02-28T13:30:31.799Z,34.4
2023-02-28T13:33:51.754Z,35.2
2023-02-28T13:37:11.891Z,35
2023-02-28T13:40:35.413Z,34.1
2023-02-28T13:43:35.734Z,32.6
2023-02-28T13:46:47.081Z,35.6
2023-02-28T13:50:07.982Z,35.4
2023-02-28T13:53:13.093Z,35
2023-02-28T13:56:34.679Z,34.9
2023-02-28T13:59:31.305Z,36
2023-02-28T14:02:28.771Z,36.4
2023-02-28T14:05:34.312Z,36.1
2023-02-28T14:08:23.412Z,35.7
2023-02-28T14:11:11.282Z,37.1
2023-02-28T14:14:13.438Z,36.6
2023-02-28T14:17:41.703Z,36.6
2023-02-28T14:20:30.377Z,36.8
2023-02-28T14:23:19.600Z,36.8
2023-02-28T14:26:26.604Z,36.7
2023-02-28T14:29:29.565Z,35.6
2023-02-28T14:32:38.736Z,36.7
2023-02-28T14:35:33.794Z,37.1
2023-02-28T14:38:36.935Z,37.6
2023-02-28T14:41:31.191Z,38.9
2023-02-28T14:44:22.371Z,37
2023-02-28T14:47:11.401Z,39.2
2023-02-28T14:50:01.916Z,40.1
2023-02-28T14:52:52.076Z,39.9
2023-02-28T14:55:41.884Z,41.1
2023-02-28T14:58:32.302Z,40.5
2023-02-28T15:01:20.378Z,40.6
2023-02-28T15:04:10.066Z,40.3
2023-02-28T15:07:09.313Z,41.9
2023-02-28T15:10:03.198Z,41.6
2023-02-28T15:13:00.231Z,41.7
2023-02-28T15:16:01.598Z,41
2023-02-28T15:18:54.390Z,42.2
2023-02-28T15:21:45.224Z,41.7
2023-02-28T15:24:35.652Z,42.9
2023-02-28T15:27:26.770Z,42.3
2023-02-28T15:30:17.819Z,42.6
2023-02-28T15:33:10.786Z,43.1
2023-02-28T15:36:07.076Z,42.5
2023-02-28T15:39:14.281Z,43.5
2023-02-28T15:42:07.148Z,44.1
2023-02-28T15:45:03.753Z,43.6
2023-02-28T15:47:53.618Z,45
2023-02-28T15:50:41.877Z,44.8
2023-02-28T15:53:29.841Z,45.3
2023-02-28T15:56:22.901Z,45.3
2023-02-28T15:59:12.709Z,46.4
2023-02-28T16:02:04.341Z,46.4
2023-02-28T16:05:03.398Z,47.4
2023-02-28T16:08:13.325Z,49.1
2023-02-28T16:11:02.150Z,49.7
2023-02-28T16:13:49.553Z,48.7
2023-02-28T16:16:38.537Z,48.5
2023-02-28T16:19:30.244Z,49.1
2023-02-28T16:22:18.280Z,50.2
2023-02-28T16:25:05.689Z,50.8
2023-02-28T16:27:54.422Z,51.2
2023-02-28T16:30:45.837Z,50.9
2023-02-28T16:33:34.833Z,51
2023-02-28T16:36:22.295Z,52.1
2023-02-28T16:39:11.119Z,52.5
2023-02-28T16:41:59.496Z,52.4
2023-02-28T16:44:46.891Z,52.9
2023-02-28T16:47:34.539Z,52.9
2023-02-28T16:50:21.984Z,53.6
2023-02-28T16:53:11.587Z,54.3
2023-02-28T16:55:59.954Z,54.4
2023-02-28T16:58:47.843Z,54.2
2023-02-28T17:01:37.247Z,54.8
2023-02-28T17:04:24.898Z,54.9
2023-02-28T17:07:13.049Z,55.6
2023-02-28T17:10:02.584Z,56.9
2023-02-28T17:13:13.000Z,57.6
2023-02-28T17:16:02.222Z,56.9
2023-02-28T17:18:51.240Z,58.2
2023-02-28T17:21:41.186Z,57.9
2023-02-28T17:24:31.298Z,59.8
2023-02-28T17:27:19.100Z,59
2023-02-28T17:30:06.724Z,58.9
2023-02-28T17:33:02.813Z,58.9
2023-02-28T17:35:50.766Z,59.9
2023-02-28T17:38:38.144Z,60.7
2023-02-28T17:41:25.613Z,59.5
2023-02-28T17:44:15.290Z,61.8
2023-02-28T17:47:03.235Z,62.5
2023-02-28T17:49:51.068Z,61.9
2023-02-28T17:52:38.627Z,56.4
2023-02-28T17:55:26.002Z,53.9
2023-02-28T17:58:13.757Z,55.8
2023-02-28T18:01:01.277Z,56.2
2023-02-28T18:03:48.802Z,56.5
2023-02-28T18:06:36.260Z,57
2023-02-28T18:09:35.365Z,57.6
2023-02-28T18:12:22.789Z,58.7
2023-02-28T18:15:10.647Z,58.7
2023-02-28T18:17:59.893Z,58.9
2023-02-28T18:20:48.575Z,60.1
2023-02-28T18:23:37.748Z,59.5
2023-02-28T18:26:32.612Z,61.8
2023-02-28T18:29:20.877Z,63.8
2023-02-28T18:32:11.233Z,56.9
2023-02-28T18:34:59.668Z,52.6
2023-02-28T18:37:47.141Z,53.3
2023-02-28T18:40:34.373Z,54.5
2023-02-28T18:43:22.969Z,55.5
2023-02-28T18:46:10.818Z,56.4
2023-02-28T18:49:01.443Z,58.2
2023-02-28T18:51:48.743Z,59.1
2023-02-28T18:54:36.248Z,61.3
2023-02-28T18:57:23.611Z,63.5
2023-02-28T19:00:11.431Z,58.9
2023-02-28T19:03:04.194Z,54.9
2023-02-28T19:05:52.202Z,53.8
2023-02-28T19:08:41.141Z,55
2023-02-28T19:11:28.658Z,56.4
2023-02-28T19:14:16.533Z,57.9
2023-02-28T19:17:05.710Z,58.7
2023-02-28T19:19:53.107Z,58.2
2023-02-28T19:22:40.459Z,58.6
2023-02-28T19:25:29.109Z,59.7
2023-02-28T19:28:16.804Z,59.2
2023-02-28T19:31:04.181Z,61.3
2023-02-28T19:33:59.080Z,61.8
2023-02-28T19:36:46.986Z,60.7
2023-02-28T19:39:35.421Z,61.5
2023-02-28T19:42:26.044Z,64
2023-02-28T19:45:17.667Z,58.8
2023-02-28T19:48:05.362Z,55.4
2023-02-28T19:50:54.486Z,56.7
2023-02-28T19:53:43.236Z,56.4
2023-02-28T19:56:31.171Z,57.7
2023-02-28T19:59:21.739Z,59
2023-02-28T20:02:18.404Z,59.7
2023-02-28T20:05:07.582Z,60.5
2023-02-28T20:07:56.200Z,61.5
2023-02-28T20:10:44.138Z,62.1
2023-02-28T20:13:31.536Z,64.4
2023-02-28T20:16:19.224Z,60.3
2023-02-28T20:19:06.902Z,56.1
2023-02-28T20:21:54.295Z,56.6
2023-02-28T20:24:41.790Z,57.6
2023-02-28T20:27:29.207Z,58.9
2023-02-28T20:30:18.385Z,59.6
2023-02-28T20:33:07.278Z,59.9
2023-02-28T20:35:54.944Z,60.1
2023-02-28T20:38:44.555Z,62.3
2023-02-28T20:41:32.577Z,62.6
2023-02-28T20:44:19.901Z,57.4
2023-02-28T20:47:07.264Z,56.4
2023-02-28T20:49:54.752Z,57.7
2023-02-28T20:52:42.103Z,58.9
2023-02-28T20:55:29.602Z,58.8
2023-02-28T20:58:17.070Z,59.9
2023-02-28T21:01:04.473Z,60.1
2023-02-28T21:03:57.223Z,62.4
2023-02-28T21:06:46.476Z,63
2023-02-28T21:09:36.399Z,57.8
2023-02-28T21:12:23.840Z,55.1
2023-02-28T21:15:11.201Z,57.2
2023-02-28T21:17:58.542Z,57.7
2023-02-28T21:20:46.024Z,58.3
2023-02-28T21:23:33.394Z,60.2
2023-02-28T21:26:20.773Z,61.2
2023-02-28T21:29:09.803Z,63.2
2023-02-28T21:31:59.811Z,60.8
2023-02-28T21:34:47.330Z,55.5
2023-02-28T21:37:34.827Z,57.6
2023-02-28T21:40:23.315Z,57.6
2023-02-28T21:43:11.801Z,59
2023-02-28T21:46:00.808Z,60.7
2023-02-28T21:48:50.095Z,62.1
2023-02-28T21:51:39.072Z,62.5
2023-02-28T21:54:32.320Z,61.6
2023-02-28T21:57:20.172Z,56.6
2023-02-28T22:00:07.658Z,57.1
2023-02-28T22:02:57.124Z,58.3
2023-02-28T22:05:45.172Z,58.2
2023-02-28T22:08:32.532Z,59.7
2023-02-28T22:11:20.075Z,63.7
2023-02-28T22:14:10.275Z,63.6
2023-02-28T22:17:01.003Z,58.5
2023-02-28T22:19:49.096Z,53.3
2023-02-28T22:22:36.493Z,53.1
2023-02-28T22:25:23.782Z,55.4
2023-02-28T22:28:11.617Z,59.1
2023-02-28T22:31:00.007Z,61.3
2023-02-28T22:33:58.760Z,64
2023-02-28T22:36:50.411Z,61.3
2023-02-28T22:39:39.144Z,55.5
2023-02-28T22:42:26.709Z,53.5
2023-02-28T22:45:17.026Z,55.2
2023-02-28T22:48:04.348Z,55.8
2023-02-28T22:50:58.656Z,60
2023-02-28T22:53:49.550Z,61.1
2023-02-28T22:56:38.632Z,64
2023-02-28T22:59:26.117Z,57.1
2023-02-28T23:02:13.785Z,53.5
2023-02-28T23:05:01.316Z,54.8
2023-02-28T23:07:48.823Z,57.3
2023-02-28T23:10:36.293Z,59
2023-02-28T23:13:27.292Z,60.9
2023-02-28T23:16:14.665Z,61.2
2023-02-28T23:19:02.079Z,61.6
2023-02-28T23:21:53.004Z,63.2
2023-02-28T23:24:41.626Z,66.8
2023-02-28T23:27:29.090Z,61.3
2023-02-28T23:30:16.510Z,53.8
2023-02-28T23:33:04.267Z,53.2
2023-02-28T23:35:52.507Z,54.2
2023-02-28T23:38:39.884Z,56.1
2023-02-28T23:41:31.066Z,58
2023-02-28T23:44:19.687Z,59.2
2023-02-28T23:47:07.679Z,63.4
2023-02-28T23:49:58.574Z,64.2
2023-02-28T23:52:45.982Z,58.2
2023-02-28T23:55:33.472Z,55
2023-02-28T23:58:20.748Z,56.5
